ESGF weather

Morup Airport
Falkenberg, Hallands län, Sweden

Public forecast

Using degrees Celsius for public forecast. Weather courtesy of forecast.io.

METAR (pilot weather report)

Closest report is Halmstad Airport, 22.0 nm (40.7 km) SE. Retrieved 2019/05/21 13:20 UTC (0 seconds ago):

ESMT 211320Z 09008KT 070V140 9999 FEW040TCU 25/14 Q1005

TAF (pilot weather forecast)

Forecast is more than 12 hours old.

Closest forecast is Halmstad Airport, 22.0 nm (40.7 km) SE. Retrieved 2017/04/24 06:33 UTC (2 years ago):

TAF ESMT 240513Z 2406/2506 22018KT 9999 BKN018 TEMPO 2406/2413 22018G30KT 4000 RADZ BKN008 TEMPO 2413/2415 24020G30KT 4000 SHRA BKN014 SCT020CB